createdAt,value
2018-11-23T00:00:31.174Z,26.40
2018-11-23T00:03:00.235Z,25.83
2018-11-23T00:05:28.809Z,26.97
2018-11-23T00:07:57.911Z,28.10
2018-11-23T00:10:27.744Z,27.87
2018-11-23T00:12:56.025Z,26.27
2018-11-23T00:15:25.681Z,29.07
2018-11-23T00:17:53.962Z,26.10
2018-11-23T00:20:24.036Z,28.43
2018-11-23T00:22:52.489Z,28.23
2018-11-23T00:25:22.122Z,28.07
2018-11-23T00:27:50.769Z,28.80
2018-11-23T00:30:22.949Z,29.77
2018-11-23T00:32:51.783Z,27.23
2018-11-23T00:35:26.859Z,28.20
2018-11-23T00:37:56.589Z,27.20
2018-11-23T00:40:28.322Z,28.63
2018-11-23T00:42:57.180Z,29.33
2018-11-23T00:45:25.533Z,29.27
2018-11-23T00:47:54.701Z,27.70
2018-11-23T00:50:23.998Z,28.70
2018-11-23T00:52:53.362Z,28.57
2018-11-23T00:55:22.729Z,30.00
2018-11-23T00:57:51.062Z,30.13
2018-11-23T01:00:26.554Z,31.37
2018-11-23T01:02:55.428Z,30.33
2018-11-23T01:05:23.911Z,32.40
2018-11-23T01:07:52.271Z,30.53
2018-11-23T01:10:22.440Z,28.97
2018-11-23T01:12:51.860Z,30.47
2018-11-23T01:15:20.166Z,29.10
2018-11-23T01:17:48.491Z,28.83
2018-11-23T01:20:18.385Z,28.57
2018-11-23T01:22:47.092Z,30.30
2018-11-23T01:25:16.694Z,30.30
2018-11-23T01:27:45.987Z,30.07
2018-11-23T01:30:16.924Z,26.67
2018-11-23T01:32:45.505Z,28.90
2018-11-23T01:35:14.081Z,28.70
2018-11-23T01:37:42.666Z,26.27
2018-11-23T01:40:13.443Z,29.40
2018-11-23T01:42:41.889Z,30.50
2018-11-23T01:45:10.836Z,29.00
2018-11-23T01:47:39.280Z,29.00
2018-11-23T01:50:14.206Z,29.40
2018-11-23T01:52:43.186Z,29.80
2018-11-23T01:55:12.609Z,30.40
2018-11-23T01:57:41.524Z,31.40
2018-11-23T02:00:13.617Z,29.43
2018-11-23T02:02:42.279Z,31.17
2018-11-23T02:05:11.052Z,31.57
2018-11-23T02:07:39.896Z,31.27
2018-11-23T02:10:09.406Z,34.00
2018-11-23T02:12:37.692Z,33.43
2018-11-23T02:15:08.368Z,32.10
2018-11-23T02:17:36.792Z,32.90
2018-11-23T02:20:07.044Z,34.23
2018-11-23T02:22:35.405Z,33.73
2018-11-23T02:25:03.745Z,34.80
2018-11-23T02:27:32.167Z,33.20
2018-11-23T02:30:00.442Z,33.67
2018-11-23T02:32:28.819Z,32.77
2018-11-23T02:34:57.433Z,33.30
2018-11-23T02:37:25.740Z,34.53
2018-11-23T02:39:54.070Z,34.20
2018-11-23T02:42:22.536Z,34.40
2018-11-23T02:44:50.925Z,34.50
2018-11-23T02:47:19.425Z,34.10
2018-11-23T02:49:47.717Z,36.40
2018-11-23T02:52:16.114Z,37.40
2018-11-23T02:54:44.598Z,36.53
2018-11-23T02:57:12.960Z,36.17
2018-11-23T02:59:41.231Z,37.80
2018-11-23T03:02:09.734Z,37.63
2018-11-23T03:04:38.148Z,40.50
2018-11-23T03:07:06.484Z,38.50
2018-11-23T03:09:34.917Z,37.60
2018-11-23T03:12:03.215Z,41.23
2018-11-23T03:14:31.626Z,39.50
2018-11-23T03:17:00.084Z,40.80
2018-11-23T03:19:28.368Z,39.00
2018-11-23T03:21:56.737Z,42.43
2018-11-23T03:24:25.183Z,42.23
2018-11-23T03:26:53.479Z,41.37
2018-11-23T03:29:21.776Z,40.70
2018-11-23T03:31:50.273Z,42.20
2018-11-23T03:34:18.988Z,42.57
2018-11-23T03:36:47.763Z,44.93
2018-11-23T03:39:16.226Z,42.83
2018-11-23T03:41:44.584Z,44.50
2018-11-23T03:44:12.930Z,43.57
2018-11-23T03:46:41.351Z,42.00
2018-11-23T03:49:09.946Z,43.00
2018-11-23T03:51:38.260Z,43.23
2018-11-23T03:54:06.615Z,43.47
2018-11-23T03:56:35.004Z,43.63
2018-11-23T03:59:03.356Z,41.80
2018-11-23T04:01:32.057Z,46.63
2018-11-23T04:04:00.396Z,41.97
2018-11-23T04:06:28.991Z,46.40
2018-11-23T04:08:57.304Z,45.37
2018-11-23T04:11:25.648Z,46.50
2018-11-23T04:13:54.100Z,44.80
2018-11-23T04:16:22.418Z,45.93
2018-11-23T04:18:50.825Z,46.33
2018-11-23T04:21:19.963Z,45.93
2018-11-23T04:23:48.591Z,42.57
2018-11-23T04:26:24.445Z,45.47
2018-11-23T04:28:45.888Z,45.63
2018-11-23T04:31:14.241Z,46.17
2018-11-23T04:33:42.645Z,45.17
2018-11-23T04:36:11.019Z,49.20
2018-11-23T04:38:39.354Z,45.77
2018-11-23T04:41:07.768Z,46.40
2018-11-23T04:43:36.291Z,45.50
2018-11-23T04:46:05.684Z,47.40
2018-11-23T04:48:34.388Z,49.37
2018-11-23T04:51:04.419Z,48.97
2018-11-23T04:53:33.057Z,47.13
2018-11-23T04:56:01.776Z,46.60
2018-11-23T04:58:30.290Z,50.10
2018-11-23T05:03:55.087Z,45.97
2018-11-23T05:06:24.959Z,47.80
2018-11-23T05:08:53.991Z,48.83
2018-11-23T05:11:23.141Z,48.63
2018-11-23T05:13:51.684Z,49.77
2018-11-23T05:16:22.861Z,54.77
2018-11-23T05:18:52.963Z,48.83
2018-11-23T05:21:21.679Z,50.77
2018-11-23T05:23:50.556Z,53.60
2018-11-23T05:26:20.267Z,51.40
2018-11-23T05:28:50.012Z,50.13
2018-11-23T05:31:19.200Z,51.47
2018-11-23T05:33:49.910Z,48.73
2018-11-23T05:36:18.685Z,52.63
2018-11-23T05:38:48.617Z,53.13
2018-11-23T05:41:17.474Z,52.50
2018-11-23T05:43:46.201Z,51.50
2018-11-23T05:46:15.503Z,51.13
2018-11-23T05:48:45.397Z,50.67
2018-11-23T05:51:14.712Z,50.80
2018-11-23T05:53:44.726Z,53.67
2018-11-23T05:56:15.607Z,52.70
2018-11-23T05:58:44.962Z,50.83
2018-11-23T06:01:14.304Z,50.30
2018-11-23T06:03:43.019Z,52.77
2018-11-23T06:06:12.131Z,49.10
2018-11-23T06:08:40.635Z,50.80
2018-11-23T06:11:09.848Z,51.37
2018-11-23T06:13:38.569Z,50.00
2018-11-23T06:16:07.523Z,52.93
2018-11-23T06:18:36.239Z,50.53
2018-11-23T06:21:05.720Z,51.43
2018-11-23T06:23:34.618Z,50.00
2018-11-23T06:26:14.564Z,50.70
2018-11-23T06:28:43.961Z,51.63
2018-11-23T06:31:14.322Z,50.00
2018-11-23T06:33:44.697Z,48.13
2018-11-23T06:36:13.614Z,51.00
2018-11-23T06:38:42.906Z,48.53
2018-11-23T06:41:11.811Z,51.77
2018-11-23T06:43:40.892Z,48.33
2018-11-23T06:46:11.105Z,51.93
2018-11-23T06:48:39.794Z,51.00
2018-11-23T06:51:09.383Z,50.47
2018-11-23T06:53:38.259Z,50.20
2018-11-23T06:56:08.157Z,49.60
2018-11-23T06:58:37.772Z,51.63
2018-11-23T07:01:07.239Z,48.27
2018-11-23T07:03:36.252Z,51.80
2018-11-23T07:06:06.405Z,47.67
2018-11-23T07:08:38.443Z,51.73
2018-11-23T07:11:08.510Z,47.10
2018-11-23T07:13:37.392Z,48.53
2018-11-23T07:16:08.998Z,49.47
2018-11-23T07:18:42.047Z,48.13
2018-11-23T07:21:21.381Z,50.17
2018-11-23T07:23:47.915Z,52.27
2018-11-23T07:26:19.700Z,49.67
2018-11-23T07:28:49.519Z,48.80
2018-11-23T07:31:19.058Z,51.13
2018-11-23T07:33:48.175Z,53.27
2018-11-23T07:36:17.305Z,51.60
2018-11-23T07:38:46.232Z,52.63
2018-11-23T07:41:26.108Z,50.67
2018-11-23T07:43:55.135Z,55.20
2018-11-23T07:46:25.939Z,49.50
2018-11-23T07:48:57.709Z,49.70
2018-11-23T07:51:26.929Z,50.50
2018-11-23T07:53:56.128Z,51.00
2018-11-23T07:56:24.808Z,52.03
2018-11-23T07:58:53.991Z,52.10
2018-11-23T08:01:24.322Z,51.20
2018-11-23T08:03:53.582Z,49.83
2018-11-23T08:06:22.418Z,49.50
2018-11-23T08:08:51.283Z,48.40
2018-11-23T08:11:21.441Z,47.27
2018-11-23T08:13:51.867Z,50.27
2018-11-23T08:16:21.498Z,50.37
2018-11-23T08:18:56.798Z,49.07
2018-11-23T08:21:26.797Z,46.97
2018-11-23T08:23:57.426Z,46.10
2018-11-23T08:26:26.204Z,50.17
2018-11-23T08:28:55.780Z,50.00
2018-11-23T08:31:24.846Z,51.70
2018-11-23T08:33:54.415Z,47.83
2018-11-23T08:36:23.828Z,50.00
2018-11-23T08:38:54.257Z,48.10
2018-11-23T08:41:23.972Z,47.97
2018-11-23T08:43:53.605Z,48.83
2018-11-23T08:46:28.840Z,49.07
2018-11-23T08:49:06.342Z,49.73
2018-11-23T08:51:35.401Z,50.00
2018-11-23T08:54:04.322Z,50.87
2018-11-23T08:56:34.291Z,48.30
2018-11-23T08:59:11.058Z,45.90
2018-11-23T09:01:40.016Z,46.90
2018-11-23T09:04:10.063Z,45.47
2018-11-23T09:06:39.753Z,45.63
2018-11-23T09:09:11.973Z,42.40
2018-11-23T09:11:41.682Z,42.00
2018-11-23T09:14:13.188Z,43.60
2018-11-23T09:16:43.627Z,42.37
2018-11-23T09:19:13.498Z,42.47
2018-11-23T09:21:44.400Z,44.40
2018-11-23T09:24:13.641Z,42.47
2018-11-23T09:26:46.910Z,40.67
2018-11-23T09:29:22.163Z,41.83
2018-11-23T09:31:51.447Z,43.40
2018-11-23T09:34:20.906Z,40.80
2018-11-23T09:36:51.927Z,41.10
2018-11-23T09:39:24.922Z,41.80
2018-11-23T09:41:54.715Z,43.40
2018-11-23T09:44:25.277Z,43.83
2018-11-23T09:46:56.144Z,41.13
2018-11-23T09:49:24.810Z,46.47
2018-11-23T09:51:55.176Z,42.30
2018-11-23T09:54:26.969Z,39.73
2018-11-23T09:57:00.360Z,41.73
2018-11-23T09:59:29.926Z,42.20
2018-11-23T10:02:00.299Z,44.60
2018-11-23T10:04:31.694Z,41.30
2018-11-23T10:07:04.622Z,42.87
2018-11-23T10:09:37.766Z,44.20
2018-11-23T10:12:08.392Z,41.20
2018-11-23T10:14:39.966Z,39.67
2018-11-23T10:17:10.623Z,40.60
2018-11-23T10:19:42.704Z,40.43
2018-11-23T10:22:14.636Z,41.90
2018-11-23T10:24:44.512Z,42.13
2018-11-23T10:27:14.548Z,39.80
2018-11-23T10:29:44.717Z,37.90
2018-11-23T10:32:16.498Z,39.20
2018-11-23T10:34:56.349Z,38.77
2018-11-23T10:37:29.287Z,38.30
2018-11-23T10:42:37.759Z,40.43
2018-11-23T10:47:52.531Z,37.80
2018-11-23T10:50:24.241Z,37.27
2018-11-23T10:53:02.162Z,40.40
2018-11-23T10:55:40.862Z,39.10
2018-11-23T10:58:11.040Z,39.70
2018-11-23T11:01:55.070Z,39.70
2018-11-23T11:04:29.233Z,38.77
2018-11-23T11:07:08.934Z,37.73
2018-11-23T11:09:38.568Z,39.67
2018-11-23T11:12:09.597Z,42.07
2018-11-23T11:14:44.277Z,37.60
2018-11-23T11:17:21.150Z,36.00
2018-11-23T11:19:55.171Z,37.43
2018-11-23T11:22:25.472Z,37.40
2018-11-23T11:25:01.295Z,36.30
2018-11-23T11:31:10.096Z,37.30
2018-11-23T11:33:40.653Z,35.90
2018-11-23T11:36:11.558Z,35.70
2018-11-23T11:38:42.762Z,34.90
2018-11-23T11:41:19.817Z,37.00
2018-11-23T11:43:57.815Z,33.73
2018-11-23T11:46:36.493Z,35.40
2018-11-23T11:49:14.950Z,37.70
2018-11-23T11:51:51.906Z,34.77
2018-11-23T11:54:24.451Z,35.97
2018-11-23T11:56:57.772Z,36.27
2018-11-23T11:59:28.412Z,34.53
2018-11-23T12:02:03.136Z,34.83
2018-11-23T12:04:35.647Z,38.13
2018-11-23T12:07:07.744Z,37.00
2018-11-23T12:09:45.289Z,36.70
2018-11-23T12:12:23.190Z,35.80
2018-11-23T12:14:56.329Z,36.13
2018-11-23T12:17:33.042Z,35.07
2018-11-23T12:20:10.931Z,36.03
2018-11-23T12:22:43.224Z,35.77
2018-11-23T12:25:13.671Z,35.60
2018-11-23T12:27:54.278Z,38.17
2018-11-23T12:30:27.516Z,38.27
2018-11-23T12:33:08.022Z,36.30
2018-11-23T12:35:48.847Z,36.60
2018-11-23T12:38:26.641Z,38.60
2018-11-23T12:40:57.732Z,38.77
2018-11-23T12:43:28.114Z,40.10
2018-11-23T12:45:59.873Z,37.50
2018-11-23T12:48:36.528Z,39.60
2018-11-23T12:51:14.326Z,39.23
2018-11-23T12:53:44.688Z,40.10
2018-11-23T12:56:15.793Z,42.07
2018-11-23T12:58:50.977Z,41.27
2018-11-23T13:01:24.084Z,40.00
2018-11-23T13:03:54.342Z,39.63
2018-11-23T13:06:28.659Z,39.97
2018-11-23T13:08:58.137Z,41.40
2018-11-23T13:11:29.293Z,38.10
2018-11-23T13:13:58.405Z,40.53
2018-11-23T13:16:33.120Z,40.80
2018-11-23T13:19:02.459Z,39.33
2018-11-23T13:21:34.398Z,42.67
2018-11-23T13:24:06.279Z,40.80
2018-11-23T13:26:35.694Z,42.27
2018-11-23T13:29:16.045Z,40.67
2018-11-23T13:31:45.917Z,41.53
2018-11-23T13:34:14.980Z,42.30
2018-11-23T13:36:48.062Z,42.97
2018-11-23T13:39:26.082Z,40.10
2018-11-23T13:41:57.921Z,45.07
2018-11-23T13:44:30.193Z,44.37
2018-11-23T13:47:13.906Z,43.40
2018-11-23T13:49:46.981Z,46.63
2018-11-23T13:52:25.407Z,43.80
2018-11-23T13:54:59.257Z,46.63
2018-11-23T13:57:31.889Z,45.43
2018-11-23T14:00:03.827Z,44.00
2018-11-23T14:02:37.299Z,44.33
2018-11-23T14:05:11.525Z,43.43
2018-11-23T14:07:40.696Z,43.20
2018-11-23T14:10:14.743Z,43.57
2018-11-23T14:12:51.176Z,46.00
2018-11-23T14:15:25.850Z,42.40
2018-11-23T14:18:02.903Z,44.27
2018-11-23T14:20:36.740Z,42.77
2018-11-23T14:23:10.377Z,44.67
2018-11-23T14:25:42.176Z,45.60
2018-11-23T14:28:13.759Z,42.13
2018-11-23T14:30:54.611Z,43.87
2018-11-23T14:33:25.359Z,41.90
2018-11-23T14:35:57.489Z,43.20
2018-11-23T14:38:30.295Z,46.13
2018-11-23T14:41:10.256Z,44.33
2018-11-23T14:43:40.534Z,47.00
2018-11-23T14:46:10.132Z,46.37
2018-11-23T14:48:40.232Z,44.17
2018-11-23T14:51:10.543Z,44.93
2018-11-23T14:53:44.298Z,43.93
2018-11-23T14:56:15.646Z,45.67
2018-11-23T14:58:45.620Z,46.37
2018-11-23T15:01:20.946Z,45.07
2018-11-23T15:03:56.050Z,46.20
2018-11-23T15:06:25.308Z,44.53
2018-11-23T15:08:54.755Z,45.30
2018-11-23T15:11:27.525Z,45.10
2018-11-23T15:14:00.448Z,42.80
2018-11-23T15:16:36.011Z,48.07
2018-11-23T15:19:08.464Z,44.93
2018-11-23T15:21:40.778Z,44.30
2018-11-23T15:24:10.339Z,45.00
2018-11-23T15:26:41.449Z,44.50
2018-11-23T15:29:13.217Z,45.90
2018-11-23T15:31:49.975Z,46.43
2018-11-23T15:34:20.293Z,48.10
2018-11-23T15:36:52.438Z,48.47
2018-11-23T15:39:23.422Z,43.43
2018-11-23T15:41:54.529Z,44.27
2018-11-23T15:44:27.608Z,44.50
2018-11-23T15:46:57.657Z,43.87
2018-11-23T15:49:27.430Z,45.20
2018-11-23T15:51:59.281Z,49.63
2018-11-23T15:54:32.129Z,47.00
2018-11-23T15:57:02.642Z,49.47
2018-11-23T15:59:34.088Z,45.57
2018-11-23T16:02:05.343Z,48.20
2018-11-23T16:04:40.269Z,47.10
2018-11-23T16:07:09.776Z,47.20
2018-11-23T16:09:45.261Z,46.13
2018-11-23T16:12:17.691Z,47.93
2018-11-23T16:14:51.179Z,47.87
2018-11-23T16:17:24.514Z,49.07
2018-11-23T16:19:58.447Z,47.57
2018-11-23T16:22:28.959Z,47.00
2018-11-23T16:24:59.848Z,49.20
2018-11-23T16:27:31.381Z,46.00
2018-11-23T16:30:02.613Z,47.27
2018-11-23T16:32:33.694Z,47.83
2018-11-23T16:35:09.127Z,48.83
2018-11-23T16:37:51.475Z,46.67
2018-11-23T16:40:26.624Z,48.80
2018-11-23T16:43:01.891Z,49.50
2018-11-23T16:45:34.040Z,47.03
2018-11-23T16:48:08.765Z,45.43
2018-11-23T16:50:38.862Z,48.13
2018-11-23T16:53:08.707Z,48.97
2018-11-23T16:55:41.935Z,47.00
2018-11-23T16:58:13.290Z,49.13
2018-11-23T17:00:48.877Z,48.63
2018-11-23T17:03:21.861Z,46.33
2018-11-23T17:05:54.589Z,46.43
2018-11-23T17:08:27.370Z,47.70
2018-11-23T17:11:03.077Z,46.13
2018-11-23T17:13:32.405Z,48.90
2018-11-23T17:16:02.893Z,46.20
2018-11-23T17:18:37.183Z,48.20
2018-11-23T17:21:09.682Z,47.77
2018-11-23T17:23:42.738Z,48.50
2018-11-23T17:26:15.586Z,51.30
2018-11-23T17:28:45.390Z,49.93
2018-11-23T17:31:15.496Z,49.27
2018-11-23T17:33:47.012Z,49.90
2018-11-23T17:36:19.667Z,52.13
2018-11-23T17:38:52.657Z,54.57
2018-11-23T17:41:26.941Z,57.77
2018-11-23T17:44:05.562Z,52.40
2018-11-23T17:46:38.950Z,49.50
2018-11-23T17:49:12.002Z,47.00
2018-11-23T17:51:43.595Z,48.20
2018-11-23T17:54:16.698Z,48.80
2018-11-23T17:56:55.025Z,47.00
2018-11-23T17:59:25.213Z,47.77
2018-11-23T18:01:55.366Z,45.90
2018-11-23T18:04:29.803Z,58.70
2018-11-23T18:07:10.827Z,49.90
2018-11-23T18:09:52.723Z,46.90
2018-11-23T18:12:29.763Z,47.67
2018-11-23T18:15:04.518Z,48.47
2018-11-23T18:17:41.019Z,49.27
2018-11-23T18:20:14.213Z,50.13
2018-11-23T18:22:51.728Z,48.17
2018-11-23T18:25:44.595Z,49.40
2018-11-23T18:28:21.803Z,45.10
2018-11-23T18:31:02.532Z,45.97
2018-11-23T18:33:39.712Z,48.47
2018-11-23T18:36:17.161Z,48.23
2018-11-23T18:38:48.366Z,48.40
2018-11-23T18:41:26.619Z,46.97
2018-11-23T18:43:57.814Z,47.37
2018-11-23T18:46:27.731Z,47.30
2018-11-23T18:49:02.073Z,46.70
2018-11-23T18:51:32.745Z,47.37
2018-11-23T18:54:02.902Z,47.57
2018-11-23T18:56:40.431Z,45.80
2018-11-23T19:01:56.698Z,43.17
2018-11-23T19:04:38.628Z,43.40
2018-11-23T19:07:15.367Z,43.30
2018-11-23T19:09:52.484Z,43.20
2018-11-23T19:12:25.411Z,44.30
2018-11-23T19:14:54.820Z,43.97
2018-11-23T19:17:28.454Z,44.73
2018-11-23T19:20:04.686Z,41.27
2018-11-23T19:22:36.700Z,43.07
2018-11-23T19:25:16.215Z,44.50
2018-11-23T19:27:55.398Z,47.63
2018-11-23T19:30:30.781Z,42.50
2018-11-23T19:33:03.549Z,44.13
2018-11-23T19:35:40.738Z,41.87
2018-11-23T19:38:10.059Z,44.57
2018-11-23T19:40:44.423Z,44.70
2018-11-23T19:43:16.420Z,46.77
2018-11-23T19:45:48.467Z,47.63
2018-11-23T19:48:23.605Z,45.30
2018-11-23T19:51:07.028Z,43.97
2018-11-23T19:53:41.506Z,48.00
2018-11-23T19:56:11.372Z,47.20
2018-11-23T19:58:43.899Z,46.17
2018-11-23T20:01:17.143Z,47.80
2018-11-23T20:04:01.606Z,47.07
2018-11-23T20:06:32.098Z,48.10
2018-11-23T20:09:07.561Z,47.73
2018-11-23T20:11:41.014Z,49.67
2018-11-23T20:14:12.733Z,46.80
2018-11-23T20:19:39.656Z,47.73
2018-11-23T20:22:16.436Z,48.23
2018-11-23T20:24:47.520Z,48.73
2018-11-23T20:27:32.602Z,48.70
2018-11-23T20:30:19.494Z,50.27
2018-11-23T20:32:53.525Z,50.30
2018-11-23T20:35:31.783Z,49.07
2018-11-23T20:38:13.689Z,50.73
2018-11-23T20:40:49.715Z,49.97
2018-11-23T20:43:39.197Z,50.97
2018-11-23T20:46:11.363Z,51.33
2018-11-23T20:48:42.950Z,48.03
2018-11-23T20:51:18.064Z,49.63
2018-11-23T20:53:53.629Z,50.00
2018-11-23T20:56:30.198Z,50.97
2018-11-23T20:59:06.327Z,50.77
2018-11-23T21:01:38.331Z,51.83
2018-11-23T21:04:10.970Z,48.90
2018-11-23T21:06:42.883Z,50.00
2018-11-23T21:09:14.307Z,52.20
2018-11-23T21:12:09.647Z,48.57
2018-11-23T21:14:44.041Z,51.77
2018-11-23T21:17:46.119Z,51.13
2018-11-23T21:20:22.884Z,54.83
2018-11-23T21:22:55.433Z,52.43
2018-11-23T21:25:35.181Z,50.53
2018-11-23T21:28:07.694Z,56.50
2018-11-23T21:30:51.229Z,55.00
2018-11-23T21:33:23.062Z,55.13
2018-11-23T21:35:56.672Z,53.63
2018-11-23T21:38:28.565Z,54.83
2018-11-23T21:41:02.691Z,54.90
2018-11-23T21:43:34.551Z,53.53
2018-11-23T21:46:10.733Z,54.83
2018-11-23T21:48:40.492Z,51.90
2018-11-23T21:51:13.663Z,55.77
2018-11-23T21:53:45.779Z,55.93
2018-11-23T21:56:20.023Z,50.97
2018-11-23T21:58:50.892Z,53.40
2018-11-23T22:01:21.270Z,53.33
2018-11-23T22:03:54.463Z,56.80
2018-11-23T22:06:25.184Z,54.10
2018-11-23T22:08:55.353Z,55.37
2018-11-23T22:11:29.773Z,52.80
2018-11-23T22:14:03.877Z,53.37
2018-11-23T22:16:35.281Z,53.93
2018-11-23T22:19:06.797Z,56.70
2018-11-23T22:21:39.940Z,54.57
2018-11-23T22:24:12.216Z,55.27
2018-11-23T22:29:23.899Z,52.23
2018-11-23T22:31:56.086Z,52.23
2018-11-23T22:34:26.620Z,54.90
2018-11-23T22:36:57.231Z,61.17
2018-11-23T22:39:27.823Z,52.80
2018-11-23T22:41:59.001Z,52.50
2018-11-23T22:44:29.424Z,51.87
2018-11-23T22:47:00.266Z,52.37
2018-11-23T22:49:31.489Z,50.37
2018-11-23T22:52:04.027Z,51.40
2018-11-23T22:54:36.583Z,52.40
2018-11-23T22:57:11.737Z,52.00
2018-11-23T22:59:43.420Z,50.70
2018-11-23T23:02:20.357Z,53.07
2018-11-23T23:04:51.492Z,51.50
2018-11-23T23:07:21.023Z,53.67
2018-11-23T23:09:51.910Z,50.63
2018-11-23T23:12:21.760Z,52.17
2018-11-23T23:14:52.393Z,53.07
2018-11-23T23:17:25.220Z,49.20
2018-11-23T23:19:59.006Z,52.57
2018-11-23T23:22:29.415Z,49.70
2018-11-23T23:24:59.187Z,51.77
2018-11-23T23:27:29.407Z,49.93
2018-11-23T23:29:59.364Z,48.60
2018-11-23T23:32:28.798Z,48.50
2018-11-23T23:34:58.237Z,46.30
2018-11-23T23:37:28.272Z,46.60
2018-11-23T23:39:58.217Z,49.03
2018-11-23T23:42:27.801Z,50.00
2018-11-23T23:44:57.565Z,62.50
2018-11-23T23:47:27.153Z,48.67
2018-11-23T23:49:56.350Z,47.70
2018-11-23T23:52:26.240Z,47.87
2018-11-23T23:54:55.166Z,49.97
2018-11-23T23:57:26.705Z,51.10
2018-11-23T23:59:55.236Z,62.10
